createdAt,value
2019-01-26T00:01:45.517Z,47.60
2019-01-26T00:04:28.431Z,51.37
2019-01-26T00:07:10.032Z,55.53
2019-01-26T00:09:50.993Z,59.50
2019-01-26T00:12:32.907Z,63.30
2019-01-26T00:15:01.862Z,53.90
2019-01-26T00:17:50.595Z,55.83
2019-01-26T00:20:38.715Z,61.13
2019-01-26T00:23:26.790Z,58.30
2019-01-26T00:26:14.828Z,66.70
2019-01-26T00:29:02.882Z,62.03
2019-01-26T00:31:51.006Z,77.33
2019-01-26T00:34:39.035Z,58.57
2019-01-26T00:37:27.350Z,59.50
2019-01-26T00:40:15.590Z,61.13
2019-01-26T00:43:03.927Z,58.00
2019-01-26T00:45:52.253Z,68.43
2019-01-26T00:48:40.365Z,58.93
2019-01-26T00:51:28.703Z,64.47
2019-01-26T00:54:16.996Z,63.63
2019-01-26T00:57:05.304Z,69.17
2019-01-26T00:59:53.418Z,63.37
2019-01-26T01:02:22.473Z,68.33
2019-01-26T01:05:10.593Z,68.43
2019-01-26T01:07:58.630Z,70.80
2019-01-26T01:10:46.643Z,72.37
2019-01-26T01:13:35.056Z,73.00
2019-01-26T01:16:23.347Z,74.10
2019-01-26T01:19:11.450Z,69.20
2019-01-26T01:21:59.715Z,74.10
2019-01-26T01:24:47.710Z,62.30
2019-01-26T01:27:42.934Z,62.37
2019-01-26T01:30:31.398Z,71.10
2019-01-26T01:33:19.831Z,57.77
2019-01-26T01:36:07.829Z,70.30
2019-01-26T01:38:36.846Z,98.40
2019-01-26T01:41:25.131Z,77.20
2019-01-26T01:44:13.137Z,81.30
2019-01-26T01:47:01.260Z,93.23
2019-01-26T01:49:49.303Z,80.43
2019-01-26T01:52:37.419Z,82.30
2019-01-26T01:55:28.103Z,101.20
2019-01-26T01:58:16.410Z,85.07
2019-01-26T02:00:57.118Z,91.50
2019-01-26T02:03:37.420Z,106.90
2019-01-26T02:06:17.914Z,88.10
2019-01-26T02:08:58.532Z,116.37
2019-01-26T02:11:39.070Z,106.27
2019-01-26T02:14:19.720Z,110.53
2019-01-26T02:17:01.108Z,99.30
2019-01-26T02:19:41.900Z,114.37
2019-01-26T02:22:22.367Z,106.50
2019-01-26T02:25:03.175Z,91.10
2019-01-26T02:27:43.923Z,106.27
2019-01-26T02:30:24.721Z,107.73
2019-01-26T02:33:05.221Z,113.70
2019-01-26T02:35:46.034Z,122.20
2019-01-26T02:38:27.090Z,129.83
2019-01-26T02:41:07.518Z,105.07
2019-01-26T02:43:48.228Z,127.50
2019-01-26T02:46:28.933Z,118.70
2019-01-26T02:49:09.843Z,101.53
2019-01-26T02:51:50.617Z,100.27
2019-01-26T02:54:31.867Z,113.93
2019-01-26T02:57:00.643Z,126.43
2019-01-26T02:59:48.639Z,114.40
2019-01-26T03:02:51.183Z,106.60
2019-01-26T03:05:39.698Z,102.57
2019-01-26T03:08:27.792Z,121.00
2019-01-26T03:11:16.141Z,107.30
2019-01-26T03:14:04.336Z,119.90
2019-01-26T03:16:52.668Z,127.10
2019-01-26T03:19:40.688Z,114.57
2019-01-26T03:22:28.689Z,125.63
2019-01-26T03:25:16.774Z,90.50
2019-01-26T03:28:04.974Z,107.93
2019-01-26T03:30:52.991Z,110.63
2019-01-26T03:33:41.042Z,95.50
2019-01-26T03:36:10.208Z,123.70
2019-01-26T03:38:39.291Z,125.63
2019-01-26T03:41:27.625Z,108.57
2019-01-26T03:44:15.643Z,92.37
2019-01-26T03:47:03.713Z,109.10
2019-01-26T03:49:51.698Z,116.63
2019-01-26T03:52:40.056Z,101.37
2019-01-26T03:55:28.348Z,120.43
2019-01-26T03:58:09.040Z,109.20
2019-01-26T04:00:50.247Z,99.00
2019-01-26T04:03:31.211Z,112.20
2019-01-26T04:06:15.434Z,107.37
2019-01-26T04:08:56.590Z,101.97
2019-01-26T04:11:37.454Z,103.53
2019-01-26T04:14:18.938Z,99.70
2019-01-26T04:17:00.274Z,100.37
2019-01-26T04:19:41.019Z,103.00
2019-01-26T04:22:21.772Z,80.00
2019-01-26T04:25:02.818Z,90.47
2019-01-26T04:27:43.601Z,97.90
2019-01-26T04:30:22.761Z,88.93
2019-01-26T04:33:11.329Z,92.57
2019-01-26T04:35:59.410Z,95.03
2019-01-26T04:38:47.413Z,76.83
2019-01-26T04:41:35.406Z,96.43
2019-01-26T04:44:23.682Z,90.10
2019-01-26T04:46:52.949Z,80.80
2019-01-26T04:49:40.978Z,82.00
2019-01-26T04:52:21.992Z,80.00
2019-01-26T04:55:02.675Z,81.07
2019-01-26T04:57:43.511Z,70.47
2019-01-26T05:00:23.813Z,72.17
2019-01-26T05:03:04.748Z,73.80
2019-01-26T05:05:46.291Z,81.27
2019-01-26T05:08:27.581Z,78.23
2019-01-26T05:11:08.118Z,86.57
2019-01-26T05:13:48.759Z,72.43
2019-01-26T05:16:31.162Z,85.60
2019-01-26T05:19:11.490Z,68.07
2019-01-26T05:21:52.253Z,61.73
2019-01-26T05:24:32.998Z,64.60
2019-01-26T05:27:13.830Z,75.97
2019-01-26T05:29:54.555Z,76.97
2019-01-26T05:32:35.006Z,61.43
2019-01-26T05:35:16.754Z,68.40
2019-01-26T05:37:57.634Z,67.50
2019-01-26T05:40:38.231Z,63.33
2019-01-26T05:43:19.139Z,68.50
2019-01-26T05:45:59.798Z,55.97
2019-01-26T05:48:40.947Z,66.73
2019-01-26T05:51:21.666Z,58.50
2019-01-26T05:54:02.412Z,61.37
2019-01-26T05:56:42.858Z,61.87
2019-01-26T05:59:23.639Z,62.10
2019-01-26T06:02:04.263Z,60.73
2019-01-26T06:04:44.839Z,56.83
2019-01-26T06:07:25.624Z,74.07
2019-01-26T06:10:06.338Z,66.03
2019-01-26T06:12:48.280Z,76.00
2019-01-26T06:15:28.928Z,66.50
2019-01-26T06:20:51.912Z,62.57
2019-01-26T06:23:32.640Z,58.17
2019-01-26T06:26:13.405Z,68.13
2019-01-26T06:28:54.675Z,71.13
2019-01-26T06:31:43.169Z,76.90
2019-01-26T06:37:21.790Z,69.60
2019-01-26T06:40:31.357Z,72.30
2019-01-26T06:43:19.365Z,66.87
2019-01-26T06:46:07.429Z,68.10
2019-01-26T06:52:12.839Z,63.23
2019-01-26T06:58:32.205Z,48.10
2019-01-26T07:07:20.325Z,47.07
2019-01-26T07:10:08.516Z,50.67
2019-01-26T07:12:56.574Z,63.67
2019-01-26T07:15:44.908Z,52.03
2019-01-26T07:18:32.992Z,51.47
2019-01-26T07:21:01.729Z,47.60
2019-01-26T07:23:49.728Z,49.03
2019-01-26T07:26:37.975Z,62.93
2019-01-26T07:29:25.980Z,46.93
2019-01-26T07:32:14.101Z,65.40
2019-01-26T07:35:02.078Z,58.87
2019-01-26T07:37:50.382Z,52.17
2019-01-26T07:40:38.633Z,46.07
2019-01-26T07:43:26.633Z,44.00
2019-01-26T07:46:14.632Z,50.37
2019-01-26T07:49:02.885Z,50.17
2019-01-26T07:51:50.973Z,53.30
2019-01-26T07:54:58.046Z,57.40
2019-01-26T07:57:46.354Z,48.27
2019-01-26T08:00:46.427Z,53.30
2019-01-26T08:03:24.055Z,44.43
2019-01-26T08:06:26.146Z,47.20
2019-01-26T08:09:01.803Z,55.60
2019-01-26T08:11:49.992Z,41.20
2019-01-26T08:14:38.065Z,42.93
2019-01-26T08:17:26.174Z,47.00
2019-01-26T08:20:15.513Z,40.83
2019-01-26T08:23:03.598Z,34.87
2019-01-26T08:25:52.031Z,42.20
2019-01-26T08:28:40.354Z,43.87
2019-01-26T08:31:21.752Z,48.03
2019-01-26T08:34:03.015Z,27.77
2019-01-26T08:36:43.797Z,38.47
2019-01-26T08:39:24.744Z,31.27
2019-01-26T08:42:05.454Z,26.77
2019-01-26T08:44:46.149Z,32.73
2019-01-26T08:47:27.267Z,36.50
2019-01-26T08:50:07.826Z,32.07
2019-01-26T08:52:48.356Z,20.90
2019-01-26T08:55:29.036Z,27.00
2019-01-26T08:58:10.159Z,22.70
2019-01-26T09:00:50.593Z,31.70
2019-01-26T09:03:50.495Z,18.97
2019-01-26T09:06:37.330Z,29.10
2019-01-26T09:09:18.563Z,22.97
2019-01-26T09:11:59.449Z,25.03
2019-01-26T09:14:40.432Z,25.80
2019-01-26T09:17:21.637Z,19.73
2019-01-26T09:20:02.335Z,19.27
2019-01-26T09:22:43.158Z,19.40
2019-01-26T09:25:24.237Z,21.90
2019-01-26T09:28:04.826Z,15.23
2019-01-26T09:30:45.787Z,13.73
2019-01-26T09:33:26.181Z,17.87
2019-01-26T09:36:07.038Z,13.87
2019-01-26T09:38:47.585Z,15.87
2019-01-26T09:41:28.336Z,18.23
2019-01-26T09:44:09.487Z,18.43
2019-01-26T09:46:48.717Z,14.90
2019-01-26T09:49:36.838Z,13.60
2019-01-26T09:52:24.893Z,9.80
2019-01-26T09:55:13.027Z,11.27
2019-01-26T09:58:01.079Z,14.43
2019-01-26T10:00:49.082Z,14.63
2019-01-26T10:03:37.146Z,12.80
2019-01-26T10:06:25.313Z,11.43
2019-01-26T10:09:13.457Z,8.20
2019-01-26T10:12:01.538Z,9.13
2019-01-26T10:14:49.546Z,6.03
2019-01-26T10:17:37.579Z,11.43
2019-01-26T10:20:26.707Z,11.00
2019-01-26T10:23:07.910Z,7.87
2019-01-26T10:25:36.880Z,5.20
2019-01-26T10:28:25.108Z,5.20
2019-01-26T10:31:13.095Z,5.93
2019-01-26T10:34:01.134Z,8.53
2019-01-26T10:37:08.213Z,4.97
2019-01-26T10:39:37.263Z,4.40
2019-01-26T10:42:27.280Z,4.40
2019-01-26T10:45:15.586Z,3.23
2019-01-26T10:48:03.905Z,7.53
2019-01-26T10:50:52.268Z,3.00
2019-01-26T10:53:40.544Z,7.67
2019-01-26T10:56:28.858Z,5.03
2019-01-26T10:59:16.883Z,4.63
2019-01-26T11:02:06.839Z,3.87
2019-01-26T11:04:55.319Z,7.40
2019-01-26T11:07:43.703Z,5.40
2019-01-26T11:10:31.787Z,5.60
2019-01-26T11:13:34.880Z,3.23
2019-01-26T11:15:51.589Z,6.40
2019-01-26T11:24:15.942Z,3.63
2019-01-26T11:27:04.011Z,4.60
2019-01-26T11:29:52.251Z,7.73
2019-01-26T11:32:32.765Z,5.00
2019-01-26T11:35:13.756Z,6.87
2019-01-26T11:37:54.783Z,2.20
2019-01-26T11:40:35.981Z,4.20
2019-01-26T11:43:16.724Z,3.07
2019-01-26T11:46:16.345Z,4.83
2019-01-26T11:48:57.079Z,3.40
2019-01-26T11:52:04.163Z,5.97
2019-01-26T11:55:11.211Z,12.03
2019-01-26T11:57:59.315Z,3.33
2019-01-26T12:04:23.082Z,7.37
2019-01-26T12:07:30.438Z,4.57
2019-01-26T12:10:18.397Z,2.97
2019-01-26T12:13:06.418Z,3.33
2019-01-26T12:15:54.372Z,7.03
2019-01-26T12:18:44.927Z,5.97
2019-01-26T12:21:32.978Z,4.10
2019-01-26T12:24:01.738Z,7.03
2019-01-26T12:26:50.024Z,5.90
2019-01-26T12:32:32.540Z,2.93
2019-01-26T12:35:20.879Z,4.43
2019-01-26T12:38:08.881Z,2.50
2019-01-26T12:40:56.903Z,2.93
2019-01-26T12:43:45.179Z,4.97
2019-01-26T12:46:33.183Z,2.53
2019-01-26T12:49:21.186Z,3.60
2019-01-26T12:52:09.244Z,2.90
2019-01-26T12:54:57.274Z,2.93
2019-01-26T12:57:45.356Z,2.53
2019-01-26T13:00:33.343Z,2.30
2019-01-26T13:03:21.343Z,2.30
2019-01-26T13:06:09.665Z,3.00
2019-01-26T13:08:57.666Z,2.57
2019-01-26T13:11:46.218Z,2.50
2019-01-26T13:14:34.235Z,2.77
2019-01-26T13:17:22.319Z,3.00
2019-01-26T13:20:10.759Z,3.73
2019-01-26T13:22:58.786Z,3.50
2019-01-26T13:25:47.100Z,3.47
2019-01-26T13:28:35.210Z,5.03
2019-01-26T13:31:23.184Z,3.53
2019-01-26T13:34:04.177Z,4.33
2019-01-26T13:36:45.195Z,4.10
2019-01-26T13:39:25.962Z,4.27
2019-01-26T13:42:07.085Z,4.83
2019-01-26T13:44:47.511Z,3.97
2019-01-26T13:47:28.579Z,5.67
2019-01-26T13:49:57.366Z,5.30
2019-01-26T13:52:45.465Z,6.40
2019-01-26T13:55:33.492Z,5.27
2019-01-26T13:58:21.756Z,7.03
2019-01-26T14:01:10.038Z,6.63
2019-01-26T14:03:58.034Z,4.93
2019-01-26T14:06:46.040Z,5.20
2019-01-26T14:09:34.121Z,8.90
2019-01-26T14:12:22.400Z,4.93
2019-01-26T14:15:11.072Z,4.83
2019-01-26T14:17:59.334Z,10.27
2019-01-26T14:21:08.243Z,4.90
2019-01-26T14:23:56.531Z,6.30
2019-01-26T14:26:49.731Z,6.77
2019-01-26T14:29:34.864Z,5.70
2019-01-26T14:32:03.691Z,8.00
2019-01-26T14:34:44.534Z,5.03
2019-01-26T14:37:25.166Z,12.13
2019-01-26T14:39:53.969Z,5.50
2019-01-26T14:42:42.259Z,11.00
2019-01-26T14:45:30.284Z,8.33
2019-01-26T14:48:18.359Z,4.63
2019-01-26T14:51:06.386Z,5.00
2019-01-26T14:53:54.523Z,11.00
2019-01-26T14:56:35.832Z,5.10
2019-01-26T14:59:16.573Z,9.30
2019-01-26T15:01:57.663Z,5.27
2019-01-26T15:04:38.578Z,5.50
2019-01-26T15:07:19.039Z,8.40
2019-01-26T15:09:59.819Z,18.50
2019-01-26T15:12:40.224Z,8.93
2019-01-26T15:15:21.004Z,6.93
2019-01-26T15:18:01.606Z,9.77
2019-01-26T15:20:42.506Z,13.43
2019-01-26T15:23:23.136Z,8.67
2019-01-26T15:26:03.809Z,7.80
2019-01-26T15:28:44.992Z,9.70
2019-01-26T15:31:25.917Z,10.07
2019-01-26T15:34:06.700Z,9.47
2019-01-26T15:36:47.545Z,10.53
2019-01-26T15:39:28.663Z,13.10
2019-01-26T15:42:09.527Z,12.63
2019-01-26T15:44:50.188Z,13.27
2019-01-26T15:47:31.167Z,13.70
2019-01-26T15:50:13.111Z,8.13
2019-01-26T15:55:37.020Z,12.20
2019-01-26T15:58:17.883Z,16.40
2019-01-26T16:00:58.744Z,16.90
2019-01-26T16:06:26.073Z,14.80
2019-01-26T16:09:06.562Z,18.00
2019-01-26T16:11:47.282Z,9.27
2019-01-26T16:14:28.291Z,11.77
2019-01-26T16:17:09.033Z,14.20
2019-01-26T16:19:50.177Z,17.90
2019-01-26T16:22:31.110Z,18.37
2019-01-26T16:25:11.703Z,15.97
2019-01-26T16:27:52.683Z,18.93
2019-01-26T16:30:33.293Z,14.67
2019-01-26T16:33:13.959Z,14.03
2019-01-26T16:35:54.683Z,13.73
2019-01-26T16:38:35.896Z,16.70
2019-01-26T16:41:16.440Z,13.03
2019-01-26T16:43:56.998Z,16.20
2019-01-26T16:46:37.504Z,13.13
2019-01-26T16:49:18.313Z,12.63
2019-01-26T16:51:59.764Z,12.93
2019-01-26T16:54:40.120Z,15.07
2019-01-26T16:57:20.853Z,10.33
2019-01-26T17:00:01.518Z,14.67
2019-01-26T17:02:42.266Z,13.60
2019-01-26T17:05:25.951Z,15.83
2019-01-26T17:08:05.527Z,16.83
2019-01-26T17:10:45.962Z,13.97
2019-01-26T17:13:27.049Z,18.70
2019-01-26T17:16:09.018Z,19.97
2019-01-26T17:18:50.370Z,18.97
2019-01-26T17:21:31.365Z,16.70
2019-01-26T17:24:11.967Z,15.00
2019-01-26T17:26:53.037Z,18.10
2019-01-26T17:29:34.078Z,18.43
2019-01-26T17:32:14.857Z,17.67
2019-01-26T17:34:55.505Z,24.37
2019-01-26T17:37:36.260Z,24.50
2019-01-26T17:40:17.102Z,24.37
2019-01-26T17:42:45.857Z,23.40
2019-01-26T17:45:33.881Z,21.70
2019-01-26T17:48:21.948Z,28.20
2019-01-26T17:51:10.045Z,26.23
2019-01-26T17:53:58.070Z,28.33
2019-01-26T17:56:46.063Z,36.93
2019-01-26T17:59:34.124Z,39.70
2019-01-26T18:02:22.458Z,43.97
2019-01-26T18:05:10.497Z,51.13
2019-01-26T18:07:39.410Z,45.07
2019-01-26T18:10:27.506Z,51.53
2019-01-26T18:13:15.649Z,48.87
2019-01-26T18:16:03.771Z,53.57
2019-01-26T18:18:52.026Z,49.27
2019-01-26T18:21:40.961Z,45.03
2019-01-26T18:24:31.274Z,45.13
2019-01-26T18:27:19.395Z,48.73
2019-01-26T18:29:48.228Z,44.57
2019-01-26T18:32:36.638Z,50.47
2019-01-26T18:35:24.832Z,48.03
2019-01-26T18:38:13.212Z,42.20
2019-01-26T18:41:01.265Z,38.97
2019-01-26T18:43:49.397Z,41.83
2019-01-26T18:46:37.394Z,42.43
2019-01-26T18:49:25.560Z,33.70
2019-01-26T18:52:13.614Z,38.47
2019-01-26T18:55:01.637Z,37.83
2019-01-26T18:57:49.833Z,31.87
2019-01-26T19:00:39.261Z,30.20
2019-01-26T19:03:29.655Z,31.17
2019-01-26T19:06:17.670Z,30.90
2019-01-26T19:09:07.942Z,30.73
2019-01-26T19:11:55.975Z,28.87
2019-01-26T19:14:43.977Z,29.73
2019-01-26T19:17:32.269Z,25.30
2019-01-26T19:20:21.255Z,26.20
2019-01-26T19:23:09.265Z,23.90
2019-01-26T19:25:57.345Z,29.20
2019-01-26T19:28:45.391Z,25.67
2019-01-26T19:31:33.464Z,21.70
2019-01-26T19:34:14.089Z,34.00
2019-01-26T19:36:55.051Z,31.97
2019-01-26T19:39:35.717Z,27.80
2019-01-26T19:42:16.449Z,36.33
2019-01-26T19:44:57.439Z,38.20
2019-01-26T19:47:38.456Z,34.97
2019-01-26T19:50:19.892Z,37.10
2019-01-26T19:53:00.596Z,37.03
2019-01-26T19:55:41.331Z,41.70
2019-01-26T19:58:21.912Z,43.47
2019-01-26T20:01:02.658Z,32.67
2019-01-26T20:03:31.460Z,37.00
2019-01-26T20:06:19.793Z,31.93
2019-01-26T20:09:09.498Z,32.23
2019-01-26T20:11:38.974Z,29.70
2019-01-26T20:14:27.126Z,32.63
2019-01-26T20:17:15.550Z,33.07
2019-01-26T20:20:03.697Z,37.67
2019-01-26T20:22:51.729Z,32.93
2019-01-26T20:25:39.983Z,31.37
2019-01-26T20:28:27.989Z,32.23
2019-01-26T20:31:16.008Z,37.87
2019-01-26T20:34:04.101Z,34.80
2019-01-26T20:36:45.776Z,42.30
2019-01-26T20:39:26.942Z,34.30
2019-01-26T20:41:56.134Z,38.17
2019-01-26T20:44:44.233Z,39.50
2019-01-26T20:50:21.397Z,47.87
2019-01-26T20:53:09.702Z,40.23
2019-01-26T20:55:57.773Z,45.50
2019-01-26T20:58:46.244Z,50.17
2019-01-26T21:01:34.357Z,43.17
2019-01-26T21:04:22.654Z,51.00
2019-01-26T21:10:08.046Z,53.43
2019-01-26T21:12:56.050Z,59.37
2019-01-26T21:15:44.041Z,46.20
2019-01-26T21:18:32.055Z,53.97
2019-01-26T21:21:20.040Z,43.70
2019-01-26T21:24:08.119Z,47.07
2019-01-26T21:26:56.221Z,49.93
2019-01-26T21:29:44.483Z,49.63
2019-01-26T21:32:24.993Z,44.97
2019-01-26T21:35:05.614Z,41.20
2019-01-26T21:37:34.472Z,54.73
2019-01-26T21:40:23.899Z,42.53
2019-01-26T21:43:11.890Z,42.13
2019-01-26T21:46:00.234Z,43.87
2019-01-26T21:48:48.219Z,47.27
2019-01-26T21:51:39.135Z,41.30
2019-01-26T21:54:26.495Z,45.30
2019-01-26T21:57:14.510Z,44.03
2019-01-26T22:00:02.592Z,39.27
2019-01-26T22:02:50.673Z,41.57
2019-01-26T22:05:38.678Z,39.53
2019-01-26T22:08:26.968Z,42.73
2019-01-26T22:11:14.977Z,44.57
2019-01-26T22:14:03.339Z,43.57
2019-01-26T22:16:51.610Z,45.00
2019-01-26T22:19:21.869Z,43.87
2019-01-26T22:22:10.409Z,49.60
2019-01-26T22:24:58.423Z,40.80
2019-01-26T22:27:39.383Z,48.43
2019-01-26T22:30:12.268Z,49.33
2019-01-26T22:33:00.350Z,42.43
2019-01-26T22:35:48.380Z,44.90
2019-01-26T22:38:36.405Z,41.37
2019-01-26T22:44:16.196Z,42.70
2019-01-26T22:47:04.299Z,42.33
2019-01-26T22:49:52.305Z,45.13
2019-01-26T22:52:40.399Z,40.73
2019-01-26T22:55:28.459Z,43.23
2019-01-26T22:58:16.479Z,44.43
2019-01-26T23:01:23.789Z,40.77
2019-01-26T23:04:31.042Z,40.47
2019-01-26T23:07:38.282Z,44.10
2019-01-26T23:10:45.552Z,42.97
2019-01-26T23:13:36.025Z,42.80
2019-01-26T23:16:43.274Z,41.23
2019-01-26T23:19:50.534Z,45.13
2019-01-26T23:22:31.071Z,42.57
2019-01-26T23:25:24.140Z,42.40
2019-01-26T23:28:14.827Z,44.80
2019-01-26T23:31:22.086Z,39.37
2019-01-26T23:34:10.105Z,40.90
2019-01-26T23:36:58.118Z,37.97
2019-01-26T23:39:46.450Z,39.60
2019-01-26T23:42:34.418Z,36.50
2019-01-26T23:45:22.517Z,30.97
2019-01-26T23:48:10.526Z,32.57
2019-01-26T23:50:58.602Z,31.07
2019-01-26T23:53:46.864Z,29.53
2019-01-26T23:56:34.869Z,28.13
2019-01-26T23:59:22.861Z,21.97
